createdAt,value
2022-10-14T08:47:31.314Z,13.64
2022-10-14T08:50:04.214Z,13.66
2022-10-14T08:52:38.970Z,13.73
2022-10-14T08:55:22.135Z,13.77
2022-10-14T08:57:59.470Z,13.83
2022-10-14T09:00:31.537Z,13.84
2022-10-14T09:03:07.598Z,13.92
2022-10-14T09:05:37.007Z,14.02
2022-10-14T09:08:08.989Z,14.21
2022-10-14T09:10:41.942Z,14.20
2022-10-14T09:13:18.616Z,14.25
2022-10-14T09:15:54.090Z,14.36
2022-10-14T09:18:36.365Z,14.38
2022-10-14T09:21:34.173Z,14.44
2022-10-14T09:24:20.971Z,14.58
2022-10-14T09:26:52.157Z,14.61
2022-10-14T09:29:27.468Z,14.67
2022-10-14T09:31:59.734Z,14.73
2022-10-14T09:34:36.124Z,14.83
2022-10-14T09:37:25.577Z,14.93
2022-10-14T09:39:57.990Z,14.99
2022-10-14T09:42:34.453Z,15.01
2022-10-14T09:45:10.566Z,15.05
2022-10-14T09:47:46.972Z,15.09
2022-10-14T09:50:24.290Z,15.14
2022-10-14T09:53:01.570Z,15.21
2022-10-14T09:55:30.897Z,15.29
2022-10-14T09:58:05.525Z,15.30
2022-10-14T10:00:37.760Z,15.39
2022-10-14T10:03:08.141Z,15.40
2022-10-14T10:05:38.270Z,15.39
2022-10-14T10:08:16.976Z,15.46
2022-10-14T10:11:03.785Z,15.48
2022-10-14T10:13:41.569Z,15.45
2022-10-14T10:16:23.780Z,15.42
2022-10-14T10:18:56.099Z,15.48
2022-10-14T10:21:28.013Z,15.48
2022-10-14T10:23:59.058Z,15.50
2022-10-14T10:26:30.820Z,15.56
2022-10-14T10:29:00.614Z,15.59
2022-10-14T10:31:47.270Z,15.63
2022-10-14T10:34:36.819Z,15.58
2022-10-14T10:37:23.862Z,15.60
2022-10-14T10:40:10.035Z,15.61
2022-10-14T10:42:48.900Z,15.60
2022-10-14T10:45:28.614Z,15.56
2022-10-14T10:48:08.267Z,15.51
2022-10-14T10:50:47.357Z,15.46
2022-10-14T10:53:30.872Z,15.49
2022-10-14T10:56:11.144Z,15.49
2022-10-14T10:58:45.827Z,15.51
2022-10-14T11:01:36.974Z,15.50
2022-10-14T11:04:23.868Z,15.52
2022-10-14T11:07:14.309Z,15.52
2022-10-14T11:10:07.060Z,15.61
2022-10-14T11:12:40.938Z,15.55
2022-10-14T11:15:23.926Z,15.55
2022-10-14T11:18:00.755Z,15.57
2022-10-14T11:20:40.371Z,15.59
2022-10-14T11:23:35.947Z,15.60
2022-10-14T11:26:16.219Z,15.65
2022-10-14T11:28:52.573Z,15.62
2022-10-14T11:31:34.507Z,15.70
2022-10-14T11:34:28.958Z,15.70
2022-10-14T11:37:09.604Z,15.78
2022-10-14T11:39:44.556Z,15.78
2022-10-14T11:42:28.860Z,15.81
2022-10-14T11:45:17.347Z,15.90
2022-10-14T11:47:51.849Z,15.98
2022-10-14T11:50:25.271Z,15.97
2022-10-14T11:52:59.317Z,15.96
2022-10-14T11:55:34.564Z,16.04
2022-10-14T11:58:11.604Z,16.04
2022-10-14T12:00:46.070Z,16.08
2022-10-14T12:03:25.460Z,16.05
2022-10-14T12:06:02.127Z,16.09
2022-10-14T12:08:38.094Z,16.14
2022-10-14T12:11:10.602Z,16.10
2022-10-14T12:13:47.601Z,16.17
2022-10-14T12:16:20.531Z,16.19
2022-10-14T12:18:55.533Z,16.19
2022-10-14T12:21:39.929Z,16.13
2022-10-14T12:24:14.661Z,16.08
2022-10-14T12:26:52.450Z,16.05
2022-10-14T12:29:30.220Z,16.03
2022-10-14T12:32:21.778Z,16.07
2022-10-14T12:34:53.843Z,16.07
2022-10-14T12:37:50.197Z,16.07
2022-10-14T12:40:36.686Z,16.08
2022-10-14T12:43:15.508Z,16.10
2022-10-14T12:46:04.264Z,16.09
2022-10-14T12:48:35.666Z,16.11
2022-10-14T12:51:13.336Z,16.11
2022-10-14T12:53:51.674Z,16.08
2022-10-14T12:56:33.387Z,16.16
2022-10-14T12:59:04.793Z,16.17
2022-10-14T13:01:38.044Z,16.10
2022-10-14T13:04:08.373Z,16.10
2022-10-14T13:06:40.376Z,16.08
2022-10-14T13:09:32.736Z,16.09
2022-10-14T13:12:44.063Z,16.07
2022-10-14T13:15:35.262Z,16.06
2022-10-14T13:21:29.170Z,16.16
2022-10-14T13:24:01.874Z,16.15
2022-10-14T13:26:42.013Z,16.22
2022-10-14T13:29:26.776Z,16.20
2022-10-14T13:32:02.853Z,16.25
2022-10-14T13:34:45.581Z,16.24
2022-10-14T13:37:32.066Z,16.19
2022-10-14T13:40:22.998Z,16.14
2022-10-14T13:42:54.547Z,16.12
2022-10-14T13:45:52.795Z,16.11
2022-10-14T13:48:29.725Z,16.11
2022-10-14T13:51:31.709Z,16.09
2022-10-14T13:54:18.357Z,16.08
2022-10-14T13:57:38.364Z,16.07
2022-10-14T14:00:38.118Z,16.14
2022-10-14T14:02:43.946Z,16.21
2022-10-14T14:05:21.836Z,16.32
2022-10-14T14:08:22.206Z,16.45
2022-10-14T14:11:11.074Z,16.41
2022-10-14T14:13:39.006Z,16.43
2022-10-14T14:16:19.882Z,16.44
2022-10-14T14:19:04.059Z,16.44
2022-10-14T14:21:53.527Z,16.43
2022-10-14T14:24:25.425Z,16.45
2022-10-14T14:26:57.634Z,16.44
2022-10-14T14:29:29.114Z,16.47
2022-10-14T14:32:06.554Z,16.43
2022-10-14T14:34:38.490Z,16.49
2022-10-14T14:39:58.958Z,16.50
2022-10-14T14:42:32.411Z,16.45
2022-10-14T14:45:05.503Z,16.45
2022-10-14T14:47:35.056Z,16.44
2022-10-14T14:50:28.841Z,16.45
2022-10-14T14:52:55.183Z,16.40
2022-10-14T14:55:41.673Z,16.38
2022-10-14T14:58:25.299Z,16.38
2022-10-14T15:00:55.200Z,16.36
2022-10-14T15:03:25.703Z,16.27
2022-10-14T15:05:58.882Z,16.25
2022-10-14T15:08:30.895Z,16.21
2022-10-14T15:11:01.088Z,16.10
2022-10-14T15:13:34.197Z,16.10
2022-10-14T15:16:03.029Z,16.15
2022-10-14T15:18:32.172Z,16.10
2022-10-14T15:21:16.978Z,16.07
2022-10-14T15:24:00.453Z,16.08
2022-10-14T15:26:35.093Z,16.04
2022-10-14T15:29:07.272Z,15.97
2022-10-14T15:31:37.092Z,15.97
2022-10-14T15:34:08.392Z,15.90
2022-10-14T15:36:37.119Z,15.86
2022-10-14T15:39:06.756Z,15.86
2022-10-14T15:41:35.279Z,15.85
2022-10-14T15:44:05.453Z,15.87
2022-10-14T15:46:50.702Z,15.84
2022-10-14T15:49:26.885Z,15.80
2022-10-14T15:51:55.594Z,15.84
2022-10-14T15:54:27.708Z,15.86
2022-10-14T15:56:57.712Z,15.84
2022-10-14T15:59:27.833Z,15.80
2022-10-14T16:01:56.564Z,15.81
2022-10-14T16:05:18.645Z,15.74
2022-10-14T16:08:13.017Z,15.71
2022-10-14T16:10:49.542Z,15.72
2022-10-14T16:13:18.197Z,15.68
2022-10-14T16:16:00.418Z,15.70
2022-10-14T16:21:50.439Z,15.64
2022-10-14T16:24:21.790Z,15.59
2022-10-14T16:26:50.979Z,15.62
2022-10-14T16:29:21.255Z,15.58
2022-10-14T16:31:52.544Z,15.57
2022-10-14T16:34:23.568Z,15.55
2022-10-14T16:36:53.121Z,15.55
2022-10-14T16:39:22.405Z,15.51
2022-10-14T16:41:51.170Z,15.49
2022-10-14T16:44:27.825Z,15.47
2022-10-14T16:47:12.914Z,15.46
2022-10-14T16:49:42.072Z,15.44
2022-10-14T16:52:12.820Z,15.42
2022-10-14T16:54:41.893Z,15.42
2022-10-14T16:57:11.369Z,15.34
2022-10-14T16:59:40.583Z,15.34
2022-10-14T17:02:14.931Z,15.35
2022-10-14T17:04:46.400Z,15.33
2022-10-14T17:07:17.568Z,15.29
2022-10-14T17:09:46.937Z,15.30
2022-10-14T17:12:15.599Z,15.13
2022-10-14T17:14:44.433Z,15.19
2022-10-14T17:17:14.667Z,15.11
2022-10-14T17:19:44.754Z,15.19
2022-10-14T17:22:13.486Z,15.07
2022-10-14T17:24:44.028Z,14.96
2022-10-14T17:27:12.745Z,14.98
2022-10-14T17:29:41.284Z,14.80
2022-10-14T17:32:12.211Z,14.87
2022-10-14T17:34:42.716Z,14.85
2022-10-14T17:37:12.497Z,14.82
2022-10-14T17:39:41.322Z,14.81
2022-10-14T17:42:10.041Z,14.77
2022-10-14T17:44:43.375Z,14.71
2022-10-14T17:47:12.753Z,14.70
2022-10-14T17:49:43.216Z,14.67
2022-10-14T17:52:12.669Z,14.67
2022-10-14T17:54:41.263Z,14.62
2022-10-14T17:57:10.069Z,14.61
2022-10-14T17:59:38.929Z,14.59
2022-10-14T18:02:17.681Z,14.59
2022-10-14T18:04:48.286Z,14.58
2022-10-14T18:07:19.006Z,14.52
2022-10-14T18:09:47.877Z,14.57
2022-10-14T18:12:17.014Z,14.51
2022-10-14T18:14:53.401Z,14.50
2022-10-14T18:17:28.365Z,14.46
2022-10-14T18:20:08.782Z,14.41
2022-10-14T18:22:37.919Z,14.37
2022-10-14T18:25:07.561Z,14.35
2022-10-14T18:27:36.659Z,14.34
2022-10-14T18:30:07.369Z,14.32
2022-10-14T18:32:37.133Z,14.30
2022-10-14T18:35:08.266Z,14.30
2022-10-14T18:37:36.817Z,14.26
2022-10-14T18:40:05.829Z,14.22
2022-10-14T18:42:34.734Z,14.23
2022-10-14T18:45:03.416Z,14.19
2022-10-14T18:47:32.854Z,14.14
2022-10-14T18:50:04.404Z,14.11
2022-10-14T18:52:34.569Z,14.09
2022-10-14T18:55:03.285Z,14.05
2022-10-14T18:57:32.129Z,14.04
2022-10-14T19:00:01.138Z,14.03
2022-10-14T19:02:34.555Z,13.99
2022-10-14T19:05:03.459Z,13.95
2022-10-14T19:07:32.073Z,13.87
2022-10-14T19:10:02.368Z,13.86
2022-10-14T19:12:45.179Z,13.84
2022-10-14T19:15:13.793Z,13.80
2022-10-14T19:17:42.946Z,13.77
2022-10-14T19:20:12.045Z,13.73
2022-10-14T19:22:44.987Z,13.68
2022-10-14T19:25:16.598Z,13.64
2022-10-14T19:27:45.845Z,13.62
2022-10-14T19:30:14.842Z,13.59
2022-10-14T19:32:43.740Z,13.57
2022-10-14T19:35:12.723Z,13.56
2022-10-14T19:37:41.343Z,13.50
2022-10-14T19:40:11.127Z,13.50
2022-10-14T19:42:41.158Z,13.49
2022-10-14T19:45:10.259Z,13.47
2022-10-14T19:47:40.274Z,13.43
2022-10-14T19:50:11.171Z,13.42
2022-10-14T19:52:42.830Z,13.37
2022-10-14T19:55:11.597Z,13.35
2022-10-14T19:57:41.573Z,13.30
2022-10-14T20:00:11.838Z,13.28
2022-10-14T20:02:40.994Z,13.24
2022-10-14T20:05:09.904Z,13.22
2022-10-14T20:07:38.556Z,13.17
2022-10-14T20:10:08.232Z,13.20
2022-10-14T20:43:59.298Z,12.76
2022-10-14T20:46:27.845Z,12.75
2022-10-14T20:48:56.996Z,12.72
2022-10-14T20:51:27.636Z,12.71
2022-10-14T20:54:01.777Z,12.66
2022-10-14T20:56:34.298Z,12.62
2022-10-14T20:59:06.926Z,12.59
2022-10-14T21:01:37.766Z,12.59
2022-10-14T21:04:08.829Z,12.59
2022-10-14T21:06:38.917Z,12.57
2022-10-14T21:09:08.096Z,12.52
2022-10-14T21:11:36.750Z,12.50
2022-10-14T21:14:08.543Z,12.48
2022-10-14T21:16:39.843Z,12.47
2022-10-14T21:19:10.113Z,12.46
2022-10-14T21:21:41.690Z,12.42
2022-10-14T21:24:14.139Z,12.40
2022-10-14T21:26:45.433Z,12.35
2022-10-14T21:29:15.530Z,12.29
2022-10-14T21:31:46.499Z,12.31
2022-10-14T21:34:17.985Z,12.29
2022-10-14T21:36:46.682Z,12.29
2022-10-14T21:39:19.075Z,12.23
2022-10-14T21:41:47.658Z,12.19
2022-10-14T21:44:20.283Z,12.17
2022-10-14T21:46:49.346Z,12.12
2022-10-14T21:49:18.520Z,12.11
2022-10-14T21:51:47.277Z,12.11
2022-10-14T21:54:17.855Z,12.04
2022-10-14T21:56:46.452Z,12.04
2022-10-14T21:59:15.013Z,11.98
2022-10-14T22:01:45.117Z,11.96
2022-10-14T22:04:13.886Z,11.93
2022-10-14T22:06:42.318Z,11.91
2022-10-14T22:09:11.577Z,11.86
2022-10-14T22:11:41.915Z,11.82
2022-10-14T22:14:14.773Z,11.77
2022-10-14T22:16:45.281Z,11.78
2022-10-14T22:19:14.135Z,11.75
2022-10-14T22:21:46.392Z,11.78
2022-10-14T22:24:15.173Z,11.72
2022-10-14T22:26:43.798Z,11.73
2022-10-14T22:29:14.934Z,11.69
2022-10-14T22:32:07.897Z,11.70
2022-10-14T22:34:36.649Z,11.65
2022-10-14T22:37:05.138Z,11.67
2022-10-14T22:39:33.771Z,11.64
2022-10-14T22:42:17.798Z,11.65
2022-10-14T22:44:46.382Z,11.61
2022-10-14T22:47:16.243Z,11.58
2022-10-14T22:49:48.290Z,11.57
2022-10-14T22:52:16.838Z,11.53
2022-10-14T22:54:49.879Z,11.51
2022-10-14T22:57:18.472Z,11.48
2022-10-14T22:59:47.365Z,11.45
2022-10-14T23:02:17.439Z,11.44
2022-10-14T23:04:46.016Z,11.41
2022-10-14T23:07:14.706Z,11.39
2022-10-14T23:09:45.985Z,11.37
2022-10-14T23:12:14.505Z,11.34
2022-10-14T23:14:42.912Z,11.30
2022-10-14T23:17:11.494Z,11.28
2022-10-14T23:19:41.794Z,11.26
2022-10-14T23:22:10.305Z,11.23
2022-10-14T23:24:38.802Z,11.21
2022-10-14T23:27:07.282Z,11.20
2022-10-14T23:29:35.771Z,11.17
2022-10-14T23:32:04.713Z,11.12
2022-10-14T23:34:33.159Z,11.07
2022-10-14T23:37:03.041Z,11.06
2022-10-14T23:39:31.641Z,11.02
2022-10-14T23:42:00.157Z,10.97
2022-10-14T23:45:08.985Z,10.93
2022-10-14T23:47:37.673Z,10.92
2022-10-14T23:50:07.106Z,10.86
2022-10-14T23:52:36.976Z,10.85
2022-10-14T23:55:05.985Z,10.82
2022-10-14T23:57:34.462Z,10.81
